This is the latest recevied weather packets stored in our database for station/object DM3FAM-10. If no packets are shown the sender has not sent any weather packets the latest 10 day(s).
| Time | Temp. | Humidity | Pressure | Rain* | Wind** | Luminosity | Snow |
|---|---|---|---|---|---|---|---|
| 1777586195 | 7.78° C | 37% | 974.7 hPa | - | - | - | - |
| 1777585295 | 6.67° C | 49% | 974.7 hPa | - | - | - | - |
| 1777584395 | 7.22° C | 45% | 974.6 hPa | - | - | - | - |
| 1777583495 | 7.22° C | 45% | 974.6 hPa | - | - | - | - |
| 1777582595 | 7.78° C | 44% | 974.5 hPa | - | - | - | - |
| 1777581695 | 10.56° C | 31% | 974.6 hPa | - | - | - | - |
| 1777580795 | 10° C | 32% | 974.4 hPa | - | - | - | - |
| 1777579895 | 9.44° C | 37% | 974.3 hPa | - | - | - | - |
| 1777578995 | 8.89° C | 40% | 974.1 hPa | - | - | - | - |
| 1777578095 | 10° C | 36% | 974 hPa | - | - | - | - |
| 1777577195 | 10.56° C | 33% | 973.8 hPa | - | - | - | - |
| 1777576295 | 11.11° C | 36% | 973.8 hPa | - | - | - | - |
| 1777575395 | 10.56° C | 39% | 973.6 hPa | - | - | - | - |
| 1777574495 | 12.78° C | 28% | 973.4 hPa | - | - | - | - |
| 1777573594 | 13.89° C | 26% | 973.3 hPa | - | - | - | - |
| 1777572694 | 14.44° C | 24% | 973.2 hPa | - | - | - | - |
| 1777571794 | 14.44° C | 27% | 973 hPa | - | - | - | - |
| 1777570894 | 14.44° C | 26% | 972.8 hPa | - | - | - | - |
| 1777569994 | 16.11° C | 22% | 972.6 hPa | - | - | - | - |
| 1777569094 | 16.11° C | 21% | 972.7 hPa | - | - | - | - |
| 1777568194 | 16.67° C | 21% | 972.5 hPa | - | - | - | - |
| 1777567294 | 16.67° C | 24% | 972.5 hPa | - | - | - | - |
| 1777566394 | 17.78° C | 19% | 972.4 hPa | - | - | - | - |
| 1777565494 | 20° C | 21% | 972.3 hPa | - | - | - | - |
| 1777564594 | 21.67° C | 19% | 972.1 hPa | - | - | - | - |
* Rain since midnight (hover to see other rain measurements)
** Current wind speed in m/s (hover to see current wind gust speed)